createdAt,value
2023-05-23T00:00:52.846Z,5.32
2023-05-23T00:03:23.144Z,4.35
2023-05-23T00:05:51.187Z,4.32
2023-05-23T00:08:17.990Z,4.65
2023-05-23T00:10:45.458Z,4.13
2023-05-23T00:13:15.385Z,3.88
2023-05-23T00:15:42.415Z,4.80
2023-05-23T00:18:12.792Z,5.43
2023-05-23T00:20:41.650Z,7.32
2023-05-23T00:23:13.940Z,6.43
2023-05-23T00:25:41.385Z,4.43
2023-05-23T00:28:08.930Z,6.35
2023-05-23T00:30:35.767Z,5.38
2023-05-23T00:33:02.850Z,4.50
2023-05-23T00:35:29.676Z,6.85
2023-05-23T00:37:56.730Z,6.25
2023-05-23T00:40:23.513Z,7.05
2023-05-23T00:42:50.387Z,5.20
2023-05-23T00:45:18.208Z,6.07
2023-05-23T00:47:46.920Z,5.85
2023-05-23T00:50:16.873Z,5.25
2023-05-23T00:52:44.585Z,5.63
2023-05-23T00:55:11.793Z,5.78
2023-05-23T00:57:41.692Z,6.95
2023-05-23T01:00:10.704Z,6.03
2023-05-23T01:02:41.641Z,5.57
2023-05-23T01:05:08.651Z,4.68
2023-05-23T01:07:36.178Z,6.38
2023-05-23T01:10:04.100Z,5.90
2023-05-23T01:13:02.092Z,5.88
2023-05-23T01:15:34.644Z,5.18
2023-05-23T01:18:10.405Z,6.72
2023-05-23T01:20:46.094Z,6.10
2023-05-23T01:23:24.852Z,4.93
2023-05-23T01:25:59.514Z,6.55
2023-05-23T01:28:32.315Z,5.55
2023-05-23T01:30:59.212Z,5.20
2023-05-23T01:33:26.207Z,7.22
2023-05-23T01:35:53.060Z,5.15
2023-05-23T01:38:20.296Z,5.07
2023-05-23T01:40:47.045Z,4.82
2023-05-23T01:43:13.776Z,4.15
2023-05-23T01:45:40.804Z,5.65
2023-05-23T01:48:08.266Z,6.28
2023-05-23T01:50:35.129Z,8.40
2023-05-23T01:53:02.018Z,7.78
2023-05-23T01:55:28.898Z,5.70
2023-05-23T01:57:56.439Z,7.00
2023-05-23T02:00:23.260Z,7.50
2023-05-23T02:02:50.164Z,6.63
2023-05-23T02:05:17.316Z,6.10
2023-05-23T02:07:44.118Z,7.15
2023-05-23T02:10:10.914Z,6.07
2023-05-23T02:12:37.680Z,6.00
2023-05-23T02:15:04.778Z,8.30
2023-05-23T02:17:31.600Z,5.13
2023-05-23T02:19:58.397Z,7.38
2023-05-23T02:22:25.652Z,5.57
2023-05-23T02:24:52.706Z,6.25
2023-05-23T02:27:19.731Z,7.72
2023-05-23T02:29:46.547Z,5.57
2023-05-23T02:32:13.441Z,5.93
2023-05-23T02:34:40.646Z,8.80
2023-05-23T02:37:07.706Z,5.55
2023-05-23T02:39:36.304Z,5.93
2023-05-23T02:42:03.398Z,8.13
2023-05-23T02:44:30.612Z,4.95
2023-05-23T02:46:57.376Z,5.03
2023-05-23T02:49:24.364Z,5.68
2023-05-23T02:51:51.178Z,4.68
2023-05-23T02:54:17.996Z,5.40
2023-05-23T02:56:45.842Z,4.13
2023-05-23T02:59:12.662Z,6.35
2023-05-23T03:01:39.536Z,3.90
2023-05-23T03:04:06.441Z,5.82
2023-05-23T03:06:34.210Z,3.63
2023-05-23T03:09:01.888Z,4.10
2023-05-23T03:11:29.954Z,3.60
2023-05-23T03:13:56.734Z,4.38
2023-05-23T03:16:24.232Z,4.15
2023-05-23T03:18:51.129Z,3.85
2023-05-23T03:21:18.058Z,2.80
2023-05-23T03:23:44.959Z,2.70
2023-05-23T03:26:12.243Z,3.65
2023-05-23T03:28:39.121Z,3.28
2023-05-23T03:31:05.973Z,3.05
2023-05-23T03:33:33.287Z,3.00
2023-05-23T03:36:00.064Z,2.95
2023-05-23T03:38:27.690Z,2.60
2023-05-23T03:40:54.548Z,2.05
2023-05-23T03:43:21.320Z,3.85
2023-05-23T03:45:48.394Z,3.28
2023-05-23T03:48:15.169Z,3.35
2023-05-23T03:50:41.983Z,3.38
2023-05-23T03:53:08.801Z,3.13
2023-05-23T03:55:36.550Z,3.00
2023-05-23T03:58:03.384Z,2.40
2023-05-23T04:00:30.206Z,3.28
2023-05-23T04:02:57.346Z,2.75
2023-05-23T04:05:24.483Z,6.18
2023-05-23T04:07:53.835Z,3.20
2023-05-23T04:10:20.764Z,3.03
2023-05-23T04:12:47.921Z,3.53
2023-05-23T04:15:14.773Z,3.30
2023-05-23T04:17:41.658Z,2.90
2023-05-23T04:20:09.817Z,3.72
2023-05-23T04:22:36.722Z,3.40
2023-05-23T04:25:03.921Z,2.97
2023-05-23T04:27:31.145Z,3.88
2023-05-23T04:29:58.298Z,4.55
2023-05-23T04:32:25.371Z,3.53
2023-05-23T04:34:52.337Z,3.78
2023-05-23T04:37:25.916Z,3.58
2023-05-23T04:39:53.133Z,3.90
2023-05-23T04:42:24.376Z,3.45
2023-05-23T04:44:51.589Z,3.78
2023-05-23T04:47:19.172Z,3.10
2023-05-23T04:49:46.175Z,6.25
2023-05-23T04:52:13.577Z,2.42
2023-05-23T04:54:44.804Z,3.83
2023-05-23T04:57:12.453Z,3.38
2023-05-23T04:59:39.519Z,2.05
2023-05-23T05:02:08.009Z,4.78
2023-05-23T05:04:35.458Z,5.07
2023-05-23T05:07:04.124Z,2.90
2023-05-23T05:09:31.677Z,3.22
2023-05-23T05:11:59.316Z,3.05
2023-05-23T05:14:27.168Z,4.75
2023-05-23T05:16:57.950Z,3.63
2023-05-23T05:19:24.999Z,4.35
2023-05-23T05:21:52.487Z,5.68
2023-05-23T05:24:21.130Z,5.15
2023-05-23T05:26:48.740Z,4.57
2023-05-23T05:29:16.143Z,2.88
2023-05-23T05:31:45.472Z,3.38
2023-05-23T05:34:13.318Z,3.97
2023-05-23T05:36:46.883Z,5.35
2023-05-23T05:39:14.426Z,5.40
2023-05-23T05:41:41.368Z,4.47
2023-05-23T05:44:09.098Z,3.08
2023-05-23T05:46:36.394Z,3.03
2023-05-23T05:49:03.583Z,3.92
2023-05-23T05:51:31.605Z,3.75
2023-05-23T05:53:58.506Z,2.22
2023-05-23T05:56:26.203Z,3.35
2023-05-23T05:58:53.105Z,3.70
2023-05-23T06:01:20.157Z,2.85
2023-05-23T06:03:47.252Z,6.40
2023-05-23T06:06:14.408Z,4.82
2023-05-23T06:08:42.088Z,5.20
2023-05-23T06:11:09.019Z,3.78
2023-05-23T06:13:35.892Z,4.03
2023-05-23T06:16:02.924Z,4.22
2023-05-23T06:18:29.875Z,3.50
2023-05-23T06:20:57.110Z,4.38
2023-05-23T06:23:24.281Z,4.05
2023-05-23T06:25:51.227Z,5.60
2023-05-23T06:28:18.670Z,7.10
2023-05-23T06:30:45.536Z,6.40
2023-05-23T06:33:12.702Z,5.97
2023-05-23T06:35:39.918Z,4.95
2023-05-23T06:38:06.725Z,5.97
2023-05-23T06:40:33.501Z,6.28
2023-05-23T06:43:00.461Z,4.30
2023-05-23T06:45:27.366Z,3.80
2023-05-23T06:47:54.159Z,2.80
2023-05-23T06:50:21.178Z,3.92
2023-05-23T06:52:48.664Z,3.25
2023-05-23T06:55:18.383Z,3.08
2023-05-23T06:57:45.943Z,5.28
2023-05-23T07:00:14.109Z,3.22
2023-05-23T07:02:41.129Z,2.42
2023-05-23T07:05:08.224Z,4.60
2023-05-23T07:07:35.151Z,3.70
2023-05-23T07:10:02.004Z,3.95
2023-05-23T07:12:28.947Z,3.30
2023-05-23T07:14:55.764Z,2.88
2023-05-23T07:17:22.887Z,3.38
2023-05-23T07:19:49.914Z,2.60
2023-05-23T07:22:17.725Z,2.83
2023-05-23T07:24:44.470Z,3.33
2023-05-23T07:27:11.713Z,3.45
2023-05-23T07:29:38.604Z,3.22
2023-05-23T07:32:06.072Z,2.95
2023-05-23T07:34:32.960Z,4.57
2023-05-23T07:36:59.764Z,4.20
2023-05-23T07:39:27.884Z,4.60
2023-05-23T07:41:54.678Z,2.88
2023-05-23T07:44:24.965Z,3.80
2023-05-23T07:46:52.503Z,4.45
2023-05-23T07:49:19.892Z,3.47
2023-05-23T07:51:46.905Z,3.30
2023-05-23T07:54:16.798Z,4.18
2023-05-23T07:56:44.664Z,4.20
2023-05-23T07:59:12.144Z,3.22
2023-05-23T08:01:39.048Z,2.83
2023-05-23T08:04:06.613Z,2.97
2023-05-23T08:06:33.710Z,3.30
2023-05-23T08:09:01.291Z,2.78
2023-05-23T08:11:30.364Z,2.33
2023-05-23T08:13:58.933Z,3.35
2023-05-23T08:16:28.245Z,3.42
2023-05-23T08:18:55.401Z,5.45
2023-05-23T08:21:23.292Z,3.72
2023-05-23T08:23:50.468Z,4.38
2023-05-23T08:26:17.247Z,5.30
2023-05-23T08:28:44.007Z,4.05
2023-05-23T08:31:11.649Z,4.25
2023-05-23T08:33:38.560Z,5.20
2023-05-23T08:36:05.719Z,3.47
2023-05-23T08:38:32.797Z,3.55
2023-05-23T08:41:01.399Z,2.65
2023-05-23T08:43:28.728Z,4.60
2023-05-23T08:45:55.473Z,3.15
2023-05-23T08:48:22.273Z,2.60
2023-05-23T08:50:51.307Z,2.35
2023-05-23T08:53:20.908Z,5.00
2023-05-23T08:55:48.845Z,3.10
2023-05-23T08:58:15.867Z,2.83
2023-05-23T09:00:43.674Z,2.72
2023-05-23T09:03:12.444Z,3.63
2023-05-23T09:05:39.414Z,3.10
2023-05-23T09:08:06.393Z,2.10
2023-05-23T09:10:33.442Z,3.60
2023-05-23T09:13:00.384Z,3.53
2023-05-23T09:15:29.214Z,2.10
2023-05-23T09:18:01.675Z,3.60
2023-05-23T09:20:28.795Z,2.42
2023-05-23T09:22:55.584Z,4.15
2023-05-23T09:25:22.334Z,3.10
2023-05-23T09:27:49.118Z,2.80
2023-05-23T09:30:16.093Z,1.60
2023-05-23T09:32:44.812Z,3.30
2023-05-23T09:35:13.912Z,2.08
2023-05-23T09:37:46.167Z,3.13
2023-05-23T09:40:14.254Z,3.33
2023-05-23T09:42:44.947Z,3.53
2023-05-23T09:45:15.647Z,3.08
2023-05-23T09:47:52.337Z,3.53
2023-05-23T09:50:19.803Z,3.40
2023-05-23T09:52:47.176Z,2.35
2023-05-23T09:55:13.990Z,2.78
2023-05-23T09:57:42.643Z,4.32
2023-05-23T10:00:12.482Z,1.98
2023-05-23T10:03:11.052Z,1.90
2023-05-23T10:05:51.213Z,3.25
2023-05-23T10:08:37.378Z,4.65
2023-05-23T10:11:13.404Z,2.05
2023-05-23T10:13:47.179Z,3.00
2023-05-23T10:16:23.520Z,3.05
2023-05-23T10:18:56.503Z,2.50
2023-05-23T10:24:00.697Z,4.70
2023-05-23T10:26:28.185Z,2.65
2023-05-23T10:28:55.752Z,2.47
2023-05-23T10:31:22.791Z,1.85
2023-05-23T10:34:12.381Z,3.13
2023-05-23T10:36:44.042Z,2.30
2023-05-23T10:39:28.181Z,2.70
2023-05-23T10:41:59.125Z,2.40
2023-05-23T10:44:32.195Z,1.60
2023-05-23T10:47:03.164Z,3.17
2023-05-23T10:49:46.584Z,3.35
2023-05-23T10:52:17.215Z,2.22
2023-05-23T10:54:44.882Z,1.85
2023-05-23T10:57:14.732Z,2.90
2023-05-23T10:59:41.607Z,2.47
2023-05-23T11:02:19.431Z,3.15
2023-05-23T11:04:48.389Z,2.28
2023-05-23T11:07:31.868Z,3.20
2023-05-23T11:10:05.021Z,2.58
2023-05-23T11:12:39.930Z,4.00
2023-05-23T11:15:20.533Z,3.83
2023-05-23T11:17:54.680Z,3.33
2023-05-23T11:20:23.624Z,3.15
2023-05-23T11:22:54.990Z,2.70
2023-05-23T11:25:23.042Z,3.00
2023-05-23T11:27:49.837Z,3.08
2023-05-23T11:30:17.652Z,3.00
2023-05-23T11:32:51.866Z,3.67
2023-05-23T11:35:18.674Z,4.07
2023-05-23T11:37:45.582Z,3.20
2023-05-23T11:40:33.385Z,4.20
2023-05-23T11:43:01.084Z,4.10
2023-05-23T11:45:28.985Z,3.72
2023-05-23T11:47:56.048Z,3.63
2023-05-23T11:50:24.308Z,3.05
2023-05-23T11:52:53.780Z,3.58
2023-05-23T11:55:21.487Z,4.45
2023-05-23T11:57:49.005Z,3.00
2023-05-23T12:00:16.634Z,2.63
2023-05-23T12:02:43.988Z,3.47
2023-05-23T12:05:13.440Z,1.95
2023-05-23T12:07:47.556Z,3.05
2023-05-23T12:10:18.162Z,3.58
2023-05-23T12:12:45.058Z,2.50
2023-05-23T12:15:12.898Z,2.70
2023-05-23T12:17:44.070Z,4.45
2023-05-23T12:20:11.647Z,3.53
2023-05-23T12:22:38.547Z,5.55
2023-05-23T12:25:08.895Z,3.17
2023-05-23T12:27:37.205Z,2.33
2023-05-23T12:30:08.274Z,2.28
2023-05-23T12:32:36.223Z,3.17
2023-05-23T12:35:04.442Z,3.17
2023-05-23T12:37:31.549Z,2.83
2023-05-23T12:39:58.303Z,2.53
2023-05-23T12:42:25.126Z,1.63
2023-05-23T12:44:53.693Z,2.38
2023-05-23T12:47:20.751Z,3.00
2023-05-23T12:49:48.099Z,3.65
2023-05-23T12:52:14.947Z,3.85
2023-05-23T12:54:41.725Z,2.38
2023-05-23T12:57:08.583Z,3.05
2023-05-23T12:59:35.387Z,3.97
2023-05-23T13:02:02.672Z,3.22
2023-05-23T13:04:31.996Z,2.10
2023-05-23T13:06:59.225Z,2.70
2023-05-23T13:09:26.035Z,1.48
2023-05-23T13:11:52.926Z,2.50
2023-05-23T13:14:19.680Z,3.10
2023-05-23T13:16:46.611Z,2.90
2023-05-23T13:19:13.885Z,2.85
2023-05-23T13:21:40.706Z,4.15
2023-05-23T13:24:08.877Z,3.30
2023-05-23T13:26:35.678Z,3.67
2023-05-23T13:29:02.452Z,2.50
2023-05-23T13:31:29.362Z,2.25
2023-05-23T13:33:56.291Z,3.55
2023-05-23T13:36:23.141Z,3.28
2023-05-23T13:38:49.892Z,3.40
2023-05-23T13:41:16.901Z,3.90
2023-05-23T13:43:43.664Z,2.60
2023-05-23T13:46:10.415Z,3.33
2023-05-23T13:48:37.384Z,2.13
2023-05-23T13:51:04.341Z,2.47
2023-05-23T13:53:31.901Z,2.92
2023-05-23T13:55:58.720Z,1.85
2023-05-23T13:58:26.014Z,2.22
2023-05-23T14:00:53.196Z,2.83
2023-05-23T14:03:20.106Z,2.38
2023-05-23T14:05:47.237Z,2.03
2023-05-23T14:08:14.385Z,2.53
2023-05-23T14:10:41.564Z,3.03
2023-05-23T14:13:08.670Z,4.47
2023-05-23T14:15:35.956Z,4.32
2023-05-23T14:18:02.951Z,3.17
2023-05-23T14:20:30.181Z,3.63
2023-05-23T14:22:56.977Z,3.20
2023-05-23T14:25:23.744Z,1.67
2023-05-23T14:27:50.505Z,2.97
2023-05-23T14:30:17.351Z,1.83
2023-05-23T14:32:44.484Z,2.70
2023-05-23T14:35:12.019Z,3.25
2023-05-23T14:37:39.512Z,2.55
2023-05-23T14:40:07.219Z,2.83
2023-05-23T14:42:34.052Z,3.78
2023-05-23T14:45:00.863Z,2.22
2023-05-23T14:47:27.875Z,2.45
2023-05-23T14:49:54.780Z,2.67
2023-05-23T14:52:21.906Z,1.60
2023-05-23T14:54:48.687Z,2.85
2023-05-23T14:57:15.604Z,3.25
2023-05-23T14:59:42.456Z,1.92
2023-05-23T15:02:09.373Z,2.22
2023-05-23T15:04:37.488Z,2.25
2023-05-23T15:07:04.390Z,1.55
2023-05-23T15:09:31.442Z,2.88
2023-05-23T15:11:58.476Z,2.55
2023-05-23T15:14:29.538Z,2.33
2023-05-23T15:16:56.700Z,1.83
2023-05-23T15:19:23.742Z,1.67
2023-05-23T15:21:51.713Z,1.90
2023-05-23T15:24:19.030Z,2.17
2023-05-23T15:26:46.092Z,2.72
2023-05-23T15:29:14.594Z,1.83
2023-05-23T15:31:41.593Z,1.30
2023-05-23T15:34:08.510Z,3.28
2023-05-23T15:36:36.568Z,2.63
2023-05-23T15:39:04.938Z,2.65
2023-05-23T15:41:31.959Z,2.72
2023-05-23T15:43:58.870Z,1.50
2023-05-23T15:46:25.989Z,2.83
2023-05-23T15:48:52.810Z,2.15
2023-05-23T15:51:19.717Z,2.53
2023-05-23T15:53:59.840Z,2.85
2023-05-23T15:56:29.579Z,2.67
2023-05-23T15:58:56.418Z,2.08
2023-05-23T16:01:23.322Z,2.67
2023-05-23T16:03:50.285Z,2.28
2023-05-23T16:06:17.240Z,2.03
2023-05-23T16:08:44.356Z,2.13
2023-05-23T16:11:11.158Z,2.22
2023-05-23T16:13:38.226Z,2.00
2023-05-23T16:16:05.618Z,2.35
2023-05-23T16:18:32.577Z,3.25
2023-05-23T16:20:59.362Z,1.95
2023-05-23T16:23:26.313Z,2.47
2023-05-23T16:25:54.370Z,3.17
2023-05-23T16:28:21.389Z,4.30
2023-05-23T16:30:48.365Z,2.30
2023-05-23T16:33:15.318Z,2.63
2023-05-23T16:35:42.439Z,2.28
2023-05-23T16:38:09.510Z,3.60
2023-05-23T16:40:36.549Z,1.60
2023-05-23T16:43:03.981Z,1.85
2023-05-23T16:45:30.791Z,2.63
2023-05-23T16:47:57.695Z,2.60
2023-05-23T16:50:24.462Z,2.60
2023-05-23T16:52:51.199Z,3.13
2023-05-23T16:55:18.023Z,2.22
2023-05-23T16:57:44.782Z,2.00
2023-05-23T17:00:12.510Z,3.45
2023-05-23T17:02:39.421Z,2.33
2023-05-23T17:05:07.063Z,4.00
2023-05-23T17:07:33.789Z,2.22
2023-05-23T17:10:00.620Z,2.70
2023-05-23T17:12:27.395Z,2.70
2023-05-23T17:14:54.215Z,3.88
2023-05-23T17:17:21.064Z,1.88
2023-05-23T17:19:48.626Z,1.80
2023-05-23T17:22:15.456Z,1.30
2023-05-23T17:24:42.494Z,3.75
2023-05-23T17:27:09.262Z,2.20
2023-05-23T17:29:35.991Z,2.35
2023-05-23T17:32:02.994Z,2.05
2023-05-23T17:34:30.040Z,1.98
2023-05-23T17:36:57.174Z,2.53
2023-05-23T17:39:24.157Z,3.38
2023-05-23T17:41:51.002Z,2.13
2023-05-23T17:44:18.058Z,3.00
2023-05-23T17:46:45.346Z,3.42
2023-05-23T17:49:12.252Z,3.03
2023-05-23T17:51:39.109Z,2.72
2023-05-23T17:54:06.854Z,2.33
2023-05-23T17:56:33.603Z,2.58
2023-05-23T17:59:02.974Z,1.38
2023-05-23T18:01:29.899Z,1.92
2023-05-23T18:03:57.179Z,3.15
2023-05-23T18:06:24.129Z,3.40
2023-05-23T18:08:51.162Z,1.83
2023-05-23T18:11:18.272Z,2.80
2023-05-23T18:13:45.079Z,2.38
2023-05-23T18:16:11.853Z,2.38
2023-05-23T18:18:38.676Z,2.20
2023-05-23T18:21:06.226Z,2.92
2023-05-23T18:23:33.633Z,2.05
2023-05-23T18:26:00.413Z,2.65
2023-05-23T18:28:27.101Z,2.13
2023-05-23T18:30:54.103Z,2.65
2023-05-23T18:33:21.262Z,2.97
2023-05-23T18:35:49.843Z,1.98
2023-05-23T18:38:16.926Z,2.53
2023-05-23T18:40:44.177Z,3.25
2023-05-23T18:43:12.385Z,3.70
2023-05-23T18:45:39.405Z,5.25
2023-05-23T18:48:06.698Z,2.72
2023-05-23T18:50:33.955Z,2.38
2023-05-23T18:53:00.755Z,3.17
2023-05-23T18:55:27.561Z,2.03
2023-05-23T18:57:54.374Z,1.17
2023-05-23T19:00:21.630Z,2.47
2023-05-23T19:02:48.778Z,3.03
2023-05-23T19:05:16.099Z,2.30
2023-05-23T19:07:43.183Z,2.10
2023-05-23T19:10:10.652Z,2.20
2023-05-23T19:12:39.500Z,3.40
2023-05-23T19:15:09.240Z,2.78
2023-05-23T19:17:36.452Z,1.95
2023-05-23T19:20:04.262Z,1.63
2023-05-23T19:22:49.631Z,2.13
2023-05-23T19:25:18.208Z,2.40
2023-05-23T19:27:45.011Z,1.83
2023-05-23T19:30:12.422Z,2.08
2023-05-23T19:32:39.213Z,2.20
2023-05-23T19:35:06.613Z,2.28
2023-05-23T19:37:33.715Z,1.85
2023-05-23T19:40:01.707Z,4.22
2023-05-23T19:42:28.689Z,2.75
2023-05-23T19:44:55.685Z,1.92
2023-05-23T19:47:22.771Z,2.42
2023-05-23T19:49:49.771Z,2.55
2023-05-23T19:52:16.791Z,1.52
2023-05-23T19:54:43.835Z,3.97
2023-05-23T19:57:11.108Z,2.85
2023-05-23T19:59:38.562Z,1.48
2023-05-23T20:02:05.629Z,1.50
2023-05-23T20:04:32.548Z,2.63
2023-05-23T20:07:00.309Z,2.03
2023-05-23T20:09:27.226Z,2.88
2023-05-23T20:11:54.259Z,0.98
2023-05-23T20:14:21.238Z,1.83
2023-05-23T20:16:48.317Z,1.90
2023-05-23T20:19:15.417Z,1.92
2023-05-23T20:21:42.415Z,1.42
2023-05-23T20:24:09.994Z,3.17
2023-05-23T20:26:37.137Z,1.13
2023-05-23T20:29:04.048Z,2.05
2023-05-23T20:31:30.956Z,1.67
2023-05-23T20:34:00.686Z,0.88
2023-05-23T20:36:27.459Z,1.77
2023-05-23T20:38:55.788Z,2.15
2023-05-23T20:41:23.373Z,3.15
2023-05-23T20:43:50.410Z,1.70
2023-05-23T20:46:17.657Z,4.10
2023-05-23T20:48:44.426Z,1.63
2023-05-23T20:51:12.208Z,2.00
2023-05-23T20:53:39.163Z,2.45
2023-05-23T20:56:07.931Z,0.98
2023-05-23T20:58:35.596Z,1.73
2023-05-23T21:01:02.552Z,1.55
2023-05-23T21:03:29.416Z,2.00
2023-05-23T21:05:56.445Z,1.92
2023-05-23T21:08:23.493Z,2.45
2023-05-23T21:10:52.520Z,2.50
2023-05-23T21:13:21.645Z,2.85
2023-05-23T21:15:49.183Z,1.90
2023-05-23T21:18:16.218Z,1.48
2023-05-23T21:20:43.478Z,3.33
2023-05-23T21:23:10.590Z,1.92
2023-05-23T21:25:37.481Z,2.03
2023-05-23T21:28:04.414Z,2.95
2023-05-23T21:30:32.694Z,3.22
2023-05-23T21:32:59.973Z,1.80
2023-05-23T21:35:27.057Z,2.47
2023-05-23T21:37:54.048Z,2.47
2023-05-23T21:40:21.089Z,1.63
2023-05-23T21:42:47.936Z,1.92
2023-05-23T21:45:14.804Z,2.70
2023-05-23T21:47:41.681Z,2.60
2023-05-23T21:50:09.288Z,1.95
2023-05-23T21:52:36.300Z,3.15
2023-05-23T21:55:03.270Z,1.52
2023-05-23T21:57:30.068Z,2.05
2023-05-23T21:59:57.050Z,1.48
2023-05-23T22:02:23.899Z,2.88
2023-05-23T22:04:50.648Z,2.22
2023-05-23T22:07:17.733Z,2.15
2023-05-23T22:09:44.992Z,1.92
2023-05-23T22:12:12.019Z,3.22
2023-05-23T22:14:38.869Z,1.88
2023-05-23T22:17:05.669Z,2.33
2023-05-23T22:19:32.569Z,1.65
2023-05-23T22:21:59.447Z,2.55
2023-05-23T22:24:26.401Z,1.45
2023-05-23T22:26:53.158Z,2.80
2023-05-23T22:29:19.983Z,2.67
2023-05-23T22:31:47.562Z,2.00
2023-05-23T22:34:14.568Z,3.30
2023-05-23T22:36:41.474Z,3.00
2023-05-23T22:39:09.723Z,2.72
2023-05-23T22:41:36.706Z,2.63
2023-05-23T22:44:03.525Z,2.22
2023-05-23T22:46:30.780Z,3.20
2023-05-23T22:48:58.386Z,3.72
2023-05-23T22:51:25.256Z,4.60
2023-05-23T22:53:53.015Z,5.32
2023-05-23T22:56:19.901Z,2.65
2023-05-23T22:58:46.712Z,3.50
2023-05-23T23:01:13.623Z,3.17
2023-05-23T23:03:40.677Z,4.57
2023-05-23T23:06:07.668Z,3.38
2023-05-23T23:08:34.515Z,3.55
2023-05-23T23:11:01.462Z,4.68
2023-05-23T23:13:28.543Z,4.00
2023-05-23T23:15:55.641Z,3.08
2023-05-23T23:18:22.394Z,3.42
2023-05-23T23:20:49.277Z,3.67
2023-05-23T23:23:16.163Z,4.32
2023-05-23T23:25:43.385Z,3.35
2023-05-23T23:28:10.350Z,3.58
2023-05-23T23:30:37.978Z,3.00
2023-05-23T23:33:05.074Z,3.15
2023-05-23T23:35:32.017Z,3.95
2023-05-23T23:37:59.197Z,3.08
2023-05-23T23:40:26.199Z,4.57
2023-05-23T23:42:53.072Z,3.47
2023-05-23T23:45:19.970Z,3.00
2023-05-23T23:47:46.969Z,2.65
2023-05-23T23:50:14.254Z,2.25
2023-05-23T23:52:41.464Z,3.83
2023-05-23T23:55:08.554Z,2.15
2023-05-23T23:57:36.050Z,2.58
